Time;durP1;ratioP1;P1;durP2;ratioP2;P2;SDS_P1;SDS_P2;PMS_P1;PMS_P2;Temp;Humidity;BMP_temperature;BMP_pressure;BME280_temperature;BME280_humidity;BME280_pressure;Samples;Min_cycle;Max_cycle;Signal;HPM_P1;HPM_P2
2023/04/24 00:01:36;;;;;;;2.47;2.27;;;;;;;-143.99;100.00;64180.81;6131688;28;20512;-74
2023/04/24 00:05:01;;;;;;;2.83;2.60;;;;;;;-143.99;100.00;64180.81;6127786;28;20223;-73
2023/04/24 00:08:23;;;;;;;3.20;2.90;;;;;;;-143.99;100.00;64180.81;6122021;28;20773;-74
2023/04/24 00:11:45;;;;;;;3.20;3.00;;;;;;;-143.99;100.00;64180.81;6128657;28;20223;-74
2023/04/24 00:15:08;;;;;;;2.20;2.10;;;;;;;-143.99;100.00;64180.81;6129676;28;20230;-74
2023/04/24 00:18:29;;;;;;;2.60;2.40;;;;;;;-143.99;100.00;64180.81;6126365;28;20234;-73
2023/04/24 00:21:50;;;;;;;3.20;3.00;;;;;;;-143.99;100.00;64180.81;6129878;28;20238;-73
2023/04/24 00:25:11;;;;;;;2.50;2.30;;;;;;;-143.99;100.00;64180.81;6135610;28;20254;-75
2023/04/24 00:28:33;;;;;;;4.13;2.03;;;;;;;-143.99;100.00;64180.81;6124286;28;20386;-74
2023/04/24 00:31:54;;;;;;;4.37;2.93;;;;;;;-143.99;100.00;64180.81;6140777;28;20245;-74
2023/04/24 00:35:15;;;;;;;3.43;2.30;;;;;;;-143.99;100.00;64180.81;6131573;28;20231;-74
2023/04/24 00:38:37;;;;;;;2.73;2.50;;;;;;;-143.99;100.00;64180.81;6136833;28;20235;-74
2023/04/24 00:41:58;;;;;;;3.00;2.73;;;;;;;-143.99;100.00;64180.81;6112986;28;20260;-74
2023/04/24 00:45:21;;;;;;;3.30;2.37;;;;;;;-143.99;100.00;64180.81;6126967;28;20782;-74
2023/04/24 00:48:42;;;;;;;2.03;1.93;;;;;;;-143.99;100.00;64180.81;6131523;28;20242;-74
2023/04/24 00:52:07;;;;;;;2.87;2.60;;;;;;;-143.99;100.00;64180.81;6128314;28;20227;-75
2023/04/24 00:55:28;;;;;;;2.60;2.40;;;;;;;-143.99;100.00;64180.81;6128034;28;20605;-74
2023/04/24 00:58:49;;;;;;;3.20;2.90;;;;;;;-143.99;100.00;64180.81;6123370;28;20227;-74
2023/04/24 01:02:12;;;;;;;3.30;3.07;;;;;;;-143.99;100.00;64180.81;6121060;28;20227;-74
2023/04/24 01:05:34;;;;;;;2.30;2.20;;;;;;;-143.99;100.00;64180.81;6130767;28;21123;-75
2023/04/24 01:08:56;;;;;;;4.03;2.30;;;;;;;-143.99;100.00;64180.81;6131932;28;20587;-73
2023/04/24 01:12:17;;;;;;;3.10;2.90;;;;;;;-143.99;100.00;64180.81;6135224;28;20814;-73
2023/04/24 01:15:39;;;;;;;2.40;2.20;;;;;;;-143.99;100.00;64180.81;6141737;28;20227;-74
2023/04/24 01:19:03;;;;;;;2.67;2.47;;;;;;;-143.99;100.00;64180.81;6140883;28;20313;-75
2023/04/24 01:22:26;;;;;;;3.53;2.40;;;;;;;-143.99;100.00;64180.81;6121945;28;20235;-73
2023/04/24 01:25:47;;;;;;;3.10;2.90;;;;;;;-143.99;100.00;64180.81;6132176;28;20259;-73
2023/04/24 01:29:10;;;;;;;2.30;2.20;;;;;;;-143.99;100.00;64180.81;6139105;28;20222;-73
2023/04/24 01:32:31;;;;;;;1.97;1.87;;;;;;;-143.99;100.00;64180.81;6115144;28;20239;-74
2023/04/24 01:35:52;;;;;;;3.07;2.87;;;;;;;-143.99;100.00;64180.81;6145472;28;20813;-74
2023/04/24 01:39:16;;;;;;;2.47;2.27;;;;;;;-143.99;100.00;64180.81;6147487;28;20272;-73
2023/04/24 01:42:37;;;;;;;1.57;1.47;;;;;;;-143.99;100.00;64180.81;6136319;28;20554;-74
2023/04/24 01:45:58;;;;;;;4.13;3.13;;;;;;;-143.99;100.00;64180.81;6138166;28;20566;-75
2023/04/24 01:49:19;;;;;;;3.17;2.20;;;;;;;-143.99;100.00;64180.81;6138692;28;20250;-74
2023/04/24 01:52:40;;;;;;;2.33;1.77;;;;;;;-143.99;100.00;64180.81;6120212;28;20231;-75
2023/04/24 01:56:03;;;;;;;2.43;2.23;;;;;;;-143.99;100.00;64180.81;6140157;28;20591;-75
2023/04/24 01:59:26;;;;;;;1.77;1.50;;;;;;;-143.99;100.00;64180.81;6135791;28;20231;-75
2023/04/24 02:02:47;;;;;;;2.90;1.87;;;;;;;-143.99;100.00;64180.81;6122350;28;20551;-74
2023/04/24 02:06:08;;;;;;;1.60;1.50;;;;;;;-143.99;100.00;64180.81;6136987;28;20623;-74
2023/04/24 02:09:29;;;;;;;2.40;2.20;;;;;;;-143.99;100.00;64180.81;6140307;28;20235;-74
2023/04/24 02:12:51;;;;;;;7.07;2.10;;;;;;;-143.99;100.00;64180.81;6131078;28;20274;-73
2023/04/24 02:16:12;;;;;;;2.87;1.53;;;;;;;-143.99;100.00;64180.81;6137154;28;20318;-74
2023/04/24 02:19:33;;;;;;;2.33;2.13;;;;;;;-143.99;100.00;64180.81;6132704;28;20238;-73
2023/04/24 02:22:54;;;;;;;2.27;2.07;;;;;;;-143.99;100.00;64180.81;6120730;28;20238;-74
2023/04/24 02:26:15;;;;;;;1.80;1.70;;;;;;;-143.99;100.00;64180.81;6136980;28;20656;-74
2023/04/24 02:29:37;;;;;;;2.00;1.90;;;;;;;-143.99;100.00;64180.81;6138912;28;20269;-74
2023/04/24 02:32:58;;;;;;;2.33;2.13;;;;;;;-143.99;100.00;64180.81;6132331;28;20239;-74
2023/04/24 02:36:19;;;;;;;4.83;2.13;;;;;;;-143.99;100.00;64180.81;6142396;28;20531;-74
2023/04/24 02:39:39;;;;;;;1.93;1.83;;;;;;;-143.99;100.00;64180.81;6122841;28;20242;-74
2023/04/24 02:43:00;;;;;;;1.63;1.53;;;;;;;-143.99;100.00;64180.81;6124115;28;20242;-75
2023/04/24 02:46:22;;;;;;;2.27;1.60;;;;;;;-143.99;100.00;64180.81;6134888;28;20528;-74
2023/04/24 02:49:43;;;;;;;3.00;2.20;;;;;;;-143.99;100.00;64180.81;6126589;28;20250;-74
2023/04/24 02:53:04;;;;;;;1.50;1.40;;;;;;;-143.99;100.00;64180.81;6132830;28;20242;-74
2023/04/24 02:56:25;;;;;;;1.43;1.33;;;;;;;-143.99;100.00;64180.81;6122318;28;20231;-74
2023/04/24 02:59:46;;;;;;;1.30;1.20;;;;;;;-143.99;100.00;64180.81;6130277;28;20259;-74
2023/04/24 03:03:08;;;;;;;1.77;1.60;;;;;;;-143.99;100.00;64180.81;6129918;28;20238;-75
2023/04/24 03:06:31;;;;;;;1.53;1.43;;;;;;;-143.99;100.00;64180.81;6122343;28;20236;-73
2023/04/24 03:09:52;;;;;;;1.67;1.27;;;;;;;-143.99;100.00;64180.81;6121269;28;20242;-73
2023/04/24 03:13:13;;;;;;;1.43;1.33;;;;;;;-143.99;100.00;64180.81;6120148;28;20593;-73
2023/04/24 03:16:33;;;;;;;1.20;1.10;;;;;;;-143.99;100.00;64180.81;6129634;28;20525;-74
2023/04/24 03:19:55;;;;;;;1.53;1.43;;;;;;;-143.99;100.00;64180.81;6131532;28;21206;-72
2023/04/24 03:23:17;;;;;;;2.27;1.10;;;;;;;-143.99;100.00;64180.81;6122299;28;20262;-72
2023/04/24 03:26:39;;;;;;;1.10;0.97;;;;;;;-143.99;100.00;64180.81;6125495;28;20227;-74
2023/04/24 03:30:36;;;;;;;3.83;1.77;;;;;;;-143.99;100.00;64180.81;6120118;28;20239;-74
2023/04/24 03:33:57;;;;;;;1.20;1.10;;;;;;;-143.99;100.00;64180.81;6136757;28;20440;-73
2023/04/24 03:37:20;;;;;;;2.83;1.33;;;;;;;-143.99;100.00;64180.81;6137347;28;20239;-75
2023/04/24 03:40:50;;;;;;;1.63;1.53;;;;;;;-143.99;100.00;64180.81;6140034;28;20243;-74
2023/04/24 03:44:26;;;;;;;1.40;1.30;;;;;;;-143.99;100.00;64180.81;6122170;28;20891;-73
2023/04/24 03:47:47;;;;;;;2.23;1.33;;;;;;;-143.99;100.00;64180.81;6113581;28;21442;-74
2023/04/24 03:51:08;;;;;;;0.70;0.70;;;;;;;-143.99;100.00;64180.81;6125832;28;20232;-74
2023/04/24 03:54:32;;;;;;;0.80;0.80;;;;;;;-143.99;100.00;64180.81;6141007;28;20230;-74
2023/04/24 03:57:54;;;;;;;2.60;2.20;;;;;;;-143.99;100.00;64180.81;6116646;28;20796;-73
2023/04/24 04:01:17;;;;;;;0.97;0.97;;;;;;;-143.99;100.00;64180.81;6135056;28;20231;-73
2023/04/24 04:04:44;;;;;;;1.33;1.17;;;;;;;-143.99;100.00;64180.81;6102214;28;20232;-74
2023/04/24 04:08:05;;;;;;;1.33;1.23;;;;;;;-143.99;100.00;64180.81;6135781;28;20624;-73
2023/04/24 04:11:27;;;;;;;1.50;1.10;;;;;;;-143.99;100.00;64180.81;6133919;28;20231;-73
2023/04/24 04:14:48;;;;;;;1.57;0.93;;;;;;;-143.99;100.00;64180.81;6123627;28;20612;-74
2023/04/24 04:18:09;;;;;;;1.20;1.20;;;;;;;-143.99;100.00;64180.81;6114333;28;20572;-73
2023/04/24 04:21:31;;;;;;;0.70;0.70;;;;;;;-143.99;100.00;64180.81;6130391;28;20247;-73
2023/04/24 04:25:01;;;;;;;0.57;0.57;;;;;;;-143.99;100.00;64180.81;6133056;28;20239;-73
2023/04/24 04:28:26;;;;;;;1.70;1.60;;;;;;;-143.99;100.00;64180.81;6132382;28;20277;-73
2023/04/24 04:31:47;;;;;;;1.30;0.70;;;;;;;-143.99;100.00;64180.81;6133919;28;20231;-74
2023/04/24 04:35:09;;;;;;;1.10;1.00;;;;;;;-143.99;100.00;64180.81;6133107;28;20565;-74
2023/04/24 04:38:31;;;;;;;1.40;1.00;;;;;;;-143.99;100.00;64180.81;6118488;28;20229;-74
2023/04/24 04:42:06;;;;;;;1.47;0.87;;;;;;;-143.99;100.00;64180.81;6135651;28;20238;-74
2023/04/24 04:45:35;;;;;;;0.80;0.80;;;;;;;-143.99;100.00;64180.81;6142961;28;20231;-74
2023/04/24 04:49:18;;;;;;;1.80;0.80;;;;;;;-143.99;100.00;64180.81;6133105;28;20234;-73
2023/04/24 04:52:40;;;;;;;1.93;1.17;;;;;;;-143.99;100.00;64180.81;6119943;28;20239;-73
2023/04/24 04:56:12;;;;;;;0.80;0.80;;;;;;;-143.99;100.00;64180.81;6141005;28;20313;-74
2023/04/24 04:59:40;;;;;;;0.60;0.60;;;;;;;-143.99;100.00;64180.81;6129234;28;20226;-74
2023/04/24 05:03:07;;;;;;;1.57;0.87;;;;;;;-143.99;100.00;64180.81;6125311;28;21683;-74
2023/04/24 05:06:28;;;;;;;1.37;1.27;;;;;;;-143.99;100.00;64180.81;6131177;28;20604;-74
2023/04/24 05:09:51;;;;;;;1.20;1.10;;;;;;;-143.99;100.00;64180.81;6131055;28;20506;-73
2023/04/24 05:13:12;;;;;;;2.20;1.00;;;;;;;-143.99;100.00;64180.81;6131449;28;20235;-67
2023/04/24 05:16:33;;;;;;;0.97;0.93;;;;;;;-143.99;100.00;64180.81;6130736;28;20247;-69
2023/04/24 05:19:56;;;;;;;1.73;1.37;;;;;;;-143.99;100.00;64180.81;6138994;28;20227;-71
2023/04/24 05:23:17;;;;;;;1.10;1.00;;;;;;;-143.99;100.00;64180.81;6140295;28;20279;-71
2023/04/24 05:26:41;;;;;;;1.00;1.00;;;;;;;-143.99;100.00;64180.81;6119156;28;20239;-70
2023/04/24 05:30:04;;;;;;;1.93;1.10;;;;;;;-143.99;100.00;64180.81;6125596;28;20240;-72
2023/04/24 05:33:25;;;;;;;2.67;1.13;;;;;;;-143.99;100.00;64180.81;6121605;28;20234;-73
2023/04/24 05:36:47;;;;;;;1.47;1.30;;;;;;;-143.99;100.00;64180.81;6134020;28;20227;-73
2023/04/24 05:40:10;;;;;;;2.43;1.77;;;;;;;-143.99;100.00;64180.81;6141347;28;20269;-72
2023/04/24 05:43:31;;;;;;;0.80;0.70;;;;;;;-143.99;100.00;64180.81;6110511;28;20338;-73
2023/04/24 05:46:51;;;;;;;1.13;1.13;;;;;;;-143.99;100.00;64180.81;6126938;28;20342;-70
2023/04/24 05:50:13;;;;;;;2.20;1.30;;;;;;;-143.99;100.00;64180.81;6133921;28;20231;-73
2023/04/24 05:53:35;;;;;;;1.10;1.10;;;;;;;-143.99;100.00;64180.81;6117187;28;20234;-72
2023/04/24 05:56:56;;;;;;;1.60;1.50;;;;;;;-143.99;100.00;64180.81;6140425;28;20286;-73
2023/04/24 06:00:29;;;;;;;3.67;1.47;;;;;;;-143.99;100.00;64180.81;6126337;28;20235;-70
2023/04/24 06:03:57;;;;;;;1.10;0.90;;;;;;;-143.99;100.00;64180.81;6138804;28;20233;-70
2023/04/24 06:07:20;;;;;;;1.27;1.17;;;;;;;-143.99;100.00;64180.81;6126108;28;20233;-72
2023/04/24 06:10:42;;;;;;;0.80;0.80;;;;;;;-143.99;100.00;64180.81;6138189;28;20636;-67
2023/04/24 06:14:04;;;;;;;1.00;0.90;;;;;;;-143.99;100.00;64180.81;6139081;28;20242;-68
2023/04/24 06:17:32;;;;;;;1.13;1.03;;;;;;;-143.99;100.00;64180.81;6117115;28;20257;-69
2023/04/24 06:20:54;;;;;;;0.90;0.90;;;;;;;-143.99;100.00;64180.81;6131303;28;20235;-68
2023/04/24 06:24:16;;;;;;;3.30;1.13;;;;;;;-143.99;100.00;64180.81;6127797;28;20262;-69
2023/04/24 06:27:38;;;;;;;1.17;1.17;;;;;;;-143.99;100.00;64180.81;6134128;28;20231;-66
2023/04/24 06:30:59;;;;;;;0.83;0.83;;;;;;;-143.99;100.00;64180.81;6143550;28;20239;-69
2023/04/24 06:34:20;;;;;;;2.50;0.70;;;;;;;-143.99;100.00;64180.81;6132214;28;20226;-68
2023/04/24 06:37:42;;;;;;;1.20;1.20;;;;;;;-143.99;100.00;64180.81;6115480;28;20235;-73
2023/04/24 06:41:04;;;;;;;1.17;1.07;;;;;;;-143.99;100.00;64180.81;6138721;28;20231;-72
2023/04/24 06:44:27;;;;;;;0.90;0.90;;;;;;;-143.99;100.00;64180.81;6129029;28;20341;-71
2023/04/24 06:47:48;;;;;;;0.90;0.87;;;;;;;-143.99;100.00;64180.81;6129294;28;20245;-72
2023/04/24 06:51:09;;;;;;;1.53;1.53;;;;;;;-143.99;100.00;64180.81;6134991;28;20274;-70
2023/04/24 06:54:30;;;;;;;2.37;1.00;;;;;;;-143.99;100.00;64180.81;6133022;28;20227;-71
2023/04/24 06:57:51;;;;;;;1.47;1.40;;;;;;;-143.99;100.00;64180.81;6122006;28;20248;-73
2023/04/24 07:01:14;;;;;;;3.10;1.83;;;;;;;-143.99;100.00;64180.81;6140152;28;20231;-73
2023/04/24 07:04:35;;;;;;;1.93;1.10;;;;;;;-143.99;100.00;64180.81;6115172;28;20263;-70
2023/04/24 07:07:58;;;;;;;1.93;1.83;;;;;;;-143.99;100.00;64180.81;6125387;28;20319;-71
2023/04/24 07:11:19;;;;;;;2.17;1.30;;;;;;;-143.99;100.00;64180.81;6135252;28;20913;-71
2023/04/24 07:14:40;;;;;;;2.03;1.77;;;;;;;-143.99;100.00;64180.81;6121960;28;20558;-70
2023/04/24 07:18:02;;;;;;;2.50;1.70;;;;;;;-143.99;100.00;64180.81;6121740;28;20365;-72
2023/04/24 07:21:23;;;;;;;1.17;1.17;;;;;;;-143.99;100.00;64180.81;6132099;28;20239;-70
2023/04/24 07:24:44;;;;;;;1.40;1.30;;;;;;;-143.99;100.00;64180.81;6113908;28;20230;-71
2023/04/24 07:28:05;;;;;;;1.20;1.10;;;;;;;-143.99;100.00;64180.81;6111806;28;20565;-71
2023/04/24 07:31:26;;;;;;;2.57;1.87;;;;;;;-143.99;100.00;64180.81;6137966;28;20541;-69
2023/04/24 07:34:49;;;;;;;1.23;1.10;;;;;;;-143.99;100.00;64180.81;6134510;28;20329;-73
2023/04/24 07:38:10;;;;;;;1.57;1.47;;;;;;;-143.99;100.00;64180.81;6108963;28;20499;-68
2023/04/24 07:41:31;;;;;;;1.43;1.33;;;;;;;-143.99;100.00;64180.81;6118992;28;20611;-70
2023/04/24 07:44:52;;;;;;;1.77;1.67;;;;;;;-143.99;100.00;64180.81;6139972;28;20434;-69
2023/04/24 07:48:14;;;;;;;2.07;1.43;;;;;;;-143.99;100.00;64180.81;6127702;28;20234;-70
2023/04/24 07:51:38;;;;;;;3.27;1.80;;;;;;;-143.99;100.00;64180.81;6129080;28;20220;-71
2023/04/24 07:55:00;;;;;;;2.10;2.00;;;;;;;-143.99;100.00;64180.81;6131045;28;20235;-72
2023/04/24 07:58:21;;;;;;;1.80;1.70;;;;;;;-143.99;100.00;64180.81;6123015;28;20234;-72
2023/04/24 08:01:42;;;;;;;2.83;2.43;;;;;;;-143.99;100.00;64180.81;6124693;28;20521;-73
2023/04/24 08:05:03;;;;;;;1.63;1.53;;;;;;;-143.99;100.00;64180.81;6118469;28;20243;-73
2023/04/24 08:08:26;;;;;;;2.57;1.53;;;;;;;-143.99;100.00;64180.81;6113235;28;20242;-73
2023/04/24 08:11:47;;;;;;;2.27;2.17;;;;;;;-143.99;100.00;64180.81;6127373;28;20246;-70
2023/04/24 08:15:09;;;;;;;2.13;2.03;;;;;;;-143.99;100.00;64180.81;6122203;28;20235;-71
2023/04/24 08:18:30;;;;;;;3.00;2.80;;;;;;;-143.99;100.00;64180.81;6124665;28;20254;-72
2023/04/24 08:21:50;;;;;;;1.87;1.77;;;;;;;-143.99;100.00;64180.81;6127990;28;20314;-73
2023/04/24 08:25:12;;;;;;;2.43;2.23;;;;;;;-143.99;100.00;64180.81;6128381;28;20235;-72
2023/04/24 08:28:33;;;;;;;2.60;2.33;;;;;;;-143.99;100.00;64180.81;6121803;28;20268;-72
2023/04/24 08:31:55;;;;;;;3.00;2.33;;;;;;;-143.99;100.00;64180.81;6121753;28;20243;-73
2023/04/24 08:35:16;;;;;;;2.43;2.00;;;;;;;-143.99;100.00;64180.81;6139416;28;20449;-72
2023/04/24 08:38:37;;;;;;;3.50;2.70;;;;;;;-143.99;100.00;64180.81;6117818;28;20511;-72
2023/04/24 08:42:05;;;;;;;2.90;2.70;;;;;;;-143.99;100.00;64180.81;6133516;28;20239;-70
2023/04/24 08:45:26;;;;;;;3.70;3.43;;;;;;;-143.99;100.00;64180.81;6131480;28;20609;-73
2023/04/24 08:48:47;;;;;;;2.50;2.30;;;;;;;-143.99;100.00;64180.81;6119737;28;20265;-68
2023/04/24 08:52:09;;;;;;;3.17;2.87;;;;;;;-143.99;100.00;64180.81;6120842;28;20238;-69
2023/04/24 08:55:31;;;;;;;2.90;2.70;;;;;;;-143.99;100.00;64180.81;6135205;28;20262;-69
2023/04/24 08:58:54;;;;;;;4.17;3.60;;;;;;;-143.99;100.00;64180.81;6139960;28;20238;-69
2023/04/24 09:02:17;;;;;;;1.60;1.43;;;;;;;-143.99;100.00;64180.81;6133224;28;20830;-71
2023/04/24 09:05:40;;;;;;;2.00;1.90;;;;;;;-143.99;100.00;64180.81;6125061;28;20239;-69
2023/04/24 09:09:03;;;;;;;2.10;1.93;;;;;;;-143.99;100.00;64180.81;6127403;28;21430;-70
2023/04/24 09:12:23;;;;;;;2.47;2.27;;;;;;;-143.99;100.00;64180.81;6129099;28;20837;-70
2023/04/24 09:15:46;;;;;;;2.47;2.03;;;;;;;-143.99;100.00;64180.81;6132852;28;20251;-70
2023/04/24 09:19:07;;;;;;;2.37;2.20;;;;;;;-143.99;100.00;64180.81;6130335;28;20246;-71
2023/04/24 09:22:30;;;;;;;3.10;2.87;;;;;;;-143.99;100.00;64180.81;6136653;28;20240;-71
2023/04/24 09:25:55;;;;;;;2.80;2.60;;;;;;;-143.99;100.00;64180.81;6131739;28;20743;-70
2023/04/24 09:29:17;;;;;;;3.83;1.93;;;;;;;-143.99;100.00;64180.81;6142577;28;20234;-69
2023/04/24 09:32:40;;;;;;;2.67;1.90;;;;;;;-143.99;100.00;64180.81;6127067;28;20274;-71
2023/04/24 09:36:02;;;;;;;3.30;3.00;;;;;;;-143.99;100.00;64180.81;6147611;28;20235;-70
2023/04/24 09:39:23;;;;;;;4.50;3.13;;;;;;;-143.99;100.00;64180.81;6138957;28;20266;-71
2023/04/24 09:42:52;;;;;;;3.23;2.93;;;;;;;-143.99;100.00;64180.81;6131677;28;20231;-69
2023/04/24 09:46:13;;;;;;;3.73;3.30;;;;;;;-143.99;100.00;64180.81;6146395;28;20239;-70
2023/04/24 09:49:37;;;;;;;3.70;3.40;;;;;;;-143.99;100.00;64180.81;6144497;28;20528;-70
2023/04/24 09:52:59;;;;;;;2.80;2.60;;;;;;;-143.99;100.00;64180.81;6137851;28;20238;-70
2023/04/24 09:56:20;;;;;;;4.00;2.60;;;;;;;-143.99;100.00;64180.81;6139012;28;20235;-69
2023/04/24 09:59:44;;;;;;;2.73;2.53;;;;;;;-143.99;100.00;64180.81;6141821;28;20234;-70
2023/04/24 10:03:06;;;;;;;3.80;3.50;;;;;;;-143.99;100.00;64180.81;6131368;28;20242;-71
2023/04/24 10:06:34;;;;;;;2.73;2.53;;;;;;;-143.99;100.00;64180.81;6147853;28;20306;-70
2023/04/24 10:09:55;;;;;;;3.33;2.80;;;;;;;-143.99;100.00;64180.81;6139891;28;20236;-70
2023/04/24 10:13:16;;;;;;;5.50;3.03;;;;;;;-143.99;100.00;64180.81;6135215;28;20242;-69
2023/04/24 10:16:37;;;;;;;5.60;3.50;;;;;;;-143.99;100.00;64180.81;6143673;28;20235;-70
2023/04/24 10:20:01;;;;;;;3.77;3.37;;;;;;;-143.99;100.00;64180.81;6140918;28;20235;-70
2023/04/24 10:23:25;;;;;;;4.50;4.10;;;;;;;-143.99;100.00;64180.81;6142994;28;20226;-70
2023/04/24 10:26:48;;;;;;;3.80;3.13;;;;;;;-143.99;100.00;64180.81;6141271;28;20604;-73
2023/04/24 10:30:12;;;;;;;8.67;3.97;;;;;;;-143.99;100.00;64180.81;6124553;28;20242;-67
2023/04/24 10:33:33;;;;;;;5.77;4.30;;;;;;;-143.99;100.00;64180.81;6132906;28;20580;-65
2023/04/24 10:36:54;;;;;;;5.50;4.23;;;;;;;-143.99;100.00;64180.81;6119947;28;20250;-64
2023/04/24 10:40:19;;;;;;;3.83;3.43;;;;;;;-143.99;100.00;64180.81;6138086;28;20231;-65
2023/04/24 10:43:41;;;;;;;5.80;5.23;;;;;;;-143.99;100.00;64180.81;6128417;28;20230;-65
2023/04/24 10:47:02;;;;;;;5.47;3.60;;;;;;;-143.99;100.00;64180.81;6124757;28;20549;-71
2023/04/24 10:50:23;;;;;;;6.07;4.83;;;;;;;-143.99;100.00;64180.81;6140345;28;20247;-70
2023/04/24 10:53:44;;;;;;;5.90;5.20;;;;;;;-143.99;100.00;64180.81;6124255;28;20629;-73
2023/04/24 10:57:32;;;;;;;4.30;3.90;;;;;;;-143.99;100.00;64180.81;6136550;28;20278;-69
2023/04/24 11:00:58;;;;;;;8.83;4.50;;;;;;;-143.99;100.00;64180.81;6114989;28;20238;-71
2023/04/24 11:04:30;;;;;;;6.10;4.67;;;;;;;-143.99;100.00;64180.81;6139849;28;20264;-72
2023/04/24 11:08:11;;;;;;;6.73;4.80;;;;;;;-143.99;100.00;64180.81;6125070;28;20649;-69
2023/04/24 11:11:33;;;;;;;6.70;4.63;;;;;;;-143.99;100.00;64180.81;6139469;28;20230;-74
2023/04/24 11:15:11;;;;;;;5.67;4.57;;;;;;;-143.99;100.00;64180.81;6131359;28;20251;-72
2023/04/24 11:18:38;;;;;;;4.37;3.63;;;;;;;-143.99;100.00;64180.81;6124461;28;20231;-70
2023/04/24 11:22:01;;;;;;;5.80;5.30;;;;;;;-143.99;100.00;64180.81;6141045;28;20796;-70
2023/04/24 11:25:23;;;;;;;5.33;4.10;;;;;;;-143.99;100.00;64180.81;6143657;28;20223;-73
2023/04/24 11:28:48;;;;;;;5.50;4.93;;;;;;;-143.99;100.00;64180.81;6127311;28;20238;-72
2023/04/24 11:32:24;;;;;;;4.23;3.87;;;;;;;-143.99;100.00;64180.81;6136419;28;20258;-71
2023/04/24 11:35:45;;;;;;;5.13;4.60;;;;;;;-143.99;100.00;64180.81;6135409;28;20321;-70
2023/04/24 11:39:06;;;;;;;7.13;4.80;;;;;;;-143.99;100.00;64180.81;6120255;28;20238;-71
2023/04/24 11:42:27;;;;;;;5.50;5.00;;;;;;;-143.99;100.00;64180.81;6130055;28;20242;-69
2023/04/24 11:45:49;;;;;;;7.03;5.17;;;;;;;-143.99;100.00;64180.81;6133369;28;20549;-70
2023/04/24 11:49:13;;;;;;;5.27;4.67;;;;;;;-143.99;100.00;64180.81;6127431;28;20242;-70
2023/04/24 11:52:38;;;;;;;4.33;3.87;;;;;;;-143.99;100.00;64180.81;6115735;28;20234;-70
2023/04/24 11:56:03;;;;;;;4.30;2.83;;;;;;;-143.99;100.00;64180.81;6141873;28;21012;-70
2023/04/24 11:59:24;;;;;;;4.70;3.73;;;;;;;-143.99;100.00;64180.81;6126315;28;20230;-70
2023/04/24 12:02:45;;;;;;;3.40;3.13;;;;;;;-143.99;100.00;64180.81;6116014;28;20223;-71
2023/04/24 12:06:08;;;;;;;3.93;3.57;;;;;;;-143.99;100.00;64180.81;6136275;28;20235;-69
2023/04/24 12:09:29;;;;;;;4.43;3.20;;;;;;;-143.99;100.00;64180.81;6137747;28;20309;-73
2023/04/24 12:12:51;;;;;;;4.30;3.93;;;;;;;-143.99;100.00;64180.81;6117793;28;20354;-74
2023/04/24 12:16:12;;;;;;;7.17;3.63;;;;;;;-143.99;100.00;64180.81;6121556;28;20318;-73
2023/04/24 12:19:33;;;;;;;5.73;3.27;;;;;;;-143.99;100.00;64180.81;6126651;28;20612;-73
2023/04/24 12:22:56;;;;;;;3.00;2.80;;;;;;;-143.99;100.00;64180.81;6102844;28;20230;-69
2023/04/24 12:26:19;;;;;;;2.97;2.67;;;;;;;-143.99;100.00;64180.81;6128222;28;20239;-71
2023/04/24 12:29:52;;;;;;;3.30;3.10;;;;;;;-143.99;100.00;64180.81;6131562;28;20226;-71
2023/04/24 12:33:13;;;;;;;3.70;3.20;;;;;;;-143.99;100.00;64180.81;6128210;28;21277;-71
2023/04/24 12:36:36;;;;;;;4.30;3.30;;;;;;;-143.99;100.00;64180.81;6132669;28;20243;-69
2023/04/24 12:40:03;;;;;;;5.87;3.33;;;;;;;-143.99;100.00;64180.81;6105661;28;20236;-67
2023/04/24 12:43:24;;;;;;;2.87;2.03;;;;;;;-143.99;100.00;64180.81;6110757;28;20636;-71
2023/04/24 12:46:45;;;;;;;3.30;3.10;;;;;;;-143.99;100.00;64180.81;6129169;28;20625;-72
2023/04/24 12:50:07;;;;;;;3.63;3.33;;;;;;;-143.99;100.00;64180.81;6127494;28;20231;-73
2023/04/24 12:53:30;;;;;;;2.27;2.17;;;;;;;-143.99;100.00;64180.81;6118417;28;20274;-71
2023/04/24 12:56:52;;;;;;;2.90;2.33;;;;;;;-143.99;100.00;64180.81;6132800;28;20568;-68
2023/04/24 13:00:14;;;;;;;3.90;3.27;;;;;;;-143.99;100.00;64180.81;6126309;28;20227;-69
2023/04/24 13:03:36;;;;;;;2.87;2.67;;;;;;;-143.99;100.00;64180.81;6124679;28;20579;-68
2023/04/24 13:06:56;;;;;;;4.57;3.23;;;;;;;-143.99;100.00;64180.81;6127667;28;20227;-71
2023/04/24 13:10:18;;;;;;;2.90;2.53;;;;;;;-143.99;100.00;64180.81;6131796;28;20223;-72
2023/04/24 13:13:41;;;;;;;4.83;3.57;;;;;;;-143.99;100.00;64180.81;6127397;28;20231;-68
2023/04/24 13:17:02;;;;;;;2.70;2.53;;;;;;;-143.99;100.00;64180.81;6123349;28;20239;-68
2023/04/24 13:20:23;;;;;;;2.63;2.43;;;;;;;-143.99;100.00;64180.81;6128969;28;20687;-69
2023/04/24 13:23:44;;;;;;;2.80;2.60;;;;;;;-143.99;100.00;64180.81;6128231;28;20230;-67
2023/04/24 13:27:05;;;;;;;3.33;2.53;;;;;;;-143.99;100.00;64180.81;6129848;28;20507;-69
2023/04/24 13:30:28;;;;;;;7.70;3.37;;;;;;;-143.99;100.00;64180.81;6130322;28;20246;-69
2023/04/24 13:33:49;;;;;;;3.80;2.87;;;;;;;-143.99;100.00;64180.81;6143486;28;20227;-66
2023/04/24 13:37:09;;;;;;;3.10;2.60;;;;;;;-143.99;100.00;64180.81;6134620;28;20491;-69
2023/04/24 13:40:30;;;;;;;3.00;2.63;;;;;;;-143.99;100.00;64180.81;6137019;28;20230;-67
2023/04/24 13:43:51;;;;;;;2.53;2.27;;;;;;;-143.99;100.00;64180.81;6130928;28;20582;-67
2023/04/24 13:47:13;;;;;;;4.53;2.30;;;;;;;-143.99;100.00;64180.81;6131967;28;20311;-68
2023/04/24 13:50:34;;;;;;;2.27;2.07;;;;;;;-143.99;100.00;64180.81;6141361;28;20231;-68
2023/04/24 13:53:55;;;;;;;2.27;2.00;;;;;;;-143.99;100.00;64180.81;6130977;28;20239;-68
2023/04/24 13:57:17;;;;;;;4.57;2.43;;;;;;;-143.99;100.00;64180.81;6129597;28;20239;-66
2023/04/24 14:00:38;;;;;;;1.97;1.87;;;;;;;-143.99;100.00;64180.81;6126127;28;20236;-67
2023/04/24 14:04:00;;;;;;;2.33;2.13;;;;;;;-143.99;100.00;64180.81;6123246;28;20230;-73
2023/04/24 14:07:21;;;;;;;3.00;2.57;;;;;;;-143.99;100.00;64180.81;6127019;28;20235;-71
2023/04/24 14:10:43;;;;;;;2.77;2.57;;;;;;;-143.99;100.00;64180.81;6119328;28;20231;-72
2023/04/24 14:14:04;;;;;;;2.87;2.63;;;;;;;-143.99;100.00;64180.81;6145971;28;20641;-72
2023/04/24 14:17:25;;;;;;;2.60;2.37;;;;;;;-143.99;100.00;64180.81;6130247;28;20234;-73
2023/04/24 14:20:47;;;;;;;2.30;2.17;;;;;;;-143.99;100.00;64180.81;6134179;28;20228;-72
2023/04/24 14:24:09;;;;;;;2.17;2.03;;;;;;;-143.99;100.00;64180.81;6131576;28;20321;-72
2023/04/24 14:27:30;;;;;;;4.57;2.37;;;;;;;-143.99;100.00;64180.81;6132326;28;20223;-72
2023/04/24 14:30:51;;;;;;;2.17;2.00;;;;;;;-143.99;100.00;64180.81;6131093;28;20230;-72
2023/04/24 14:34:12;;;;;;;2.33;1.93;;;;;;;-143.99;100.00;64180.81;6139463;28;20520;-72
2023/04/24 14:37:35;;;;;;;2.23;2.10;;;;;;;-143.99;100.00;64180.81;6132261;28;20254;-73
2023/04/24 14:40:56;;;;;;;2.77;2.57;;;;;;;-143.99;100.00;64180.81;6132352;28;20247;-73
2023/04/24 14:44:17;;;;;;;2.23;2.03;;;;;;;-143.99;100.00;64180.81;6128079;28;20242;-67
2023/04/24 14:47:38;;;;;;;2.40;2.00;;;;;;;-143.99;100.00;64180.81;6116954;28;20235;-73
2023/04/24 14:50:59;;;;;;;2.90;2.67;;;;;;;-143.99;100.00;64180.81;6138408;28;20235;-73
2023/04/24 14:54:23;;;;;;;3.50;2.50;;;;;;;-143.99;100.00;64180.81;6133899;28;20636;-72
2023/04/24 14:57:44;;;;;;;3.43;3.10;;;;;;;-143.99;100.00;64180.81;6122649;28;20243;-72
2023/04/24 15:01:05;;;;;;;4.60;3.17;;;;;;;-143.99;100.00;64180.81;6138679;28;20238;-72
2023/04/24 15:04:26;;;;;;;4.10;2.60;;;;;;;-143.99;100.00;64180.81;6140456;28;20242;-74
2023/04/24 15:07:47;;;;;;;2.40;2.20;;;;;;;-143.99;100.00;64180.81;6121843;28;20705;-72
2023/04/24 15:11:10;;;;;;;4.30;3.90;;;;;;;-143.99;100.00;64180.81;6139062;28;20231;-72
2023/04/24 15:14:31;;;;;;;2.90;2.70;;;;;;;-143.99;100.00;64180.81;6135538;28;20254;-71
2023/04/24 15:17:52;;;;;;;2.77;2.57;;;;;;;-143.99;100.00;64180.81;6126050;28;20590;-72
2023/04/24 15:21:14;;;;;;;2.63;2.43;;;;;;;-143.99;100.00;64180.81;6148746;28;20898;-72